createdAt,value
2023-02-18T00:01:11.909Z,5.74
2023-02-18T00:03:42.204Z,5.48
2023-02-18T00:06:16.871Z,5.24
2023-02-18T00:08:47.216Z,5.00
2023-02-18T00:11:17.822Z,4.86
2023-02-18T00:13:54.649Z,4.76
2023-02-18T00:16:24.978Z,4.75
2023-02-18T00:18:57.501Z,4.76
2023-02-18T00:21:27.138Z,4.68
2023-02-18T00:23:57.106Z,4.62
2023-02-18T00:26:26.726Z,4.57
2023-02-18T00:28:57.253Z,4.60
2023-02-18T00:31:29.834Z,4.63
2023-02-18T00:34:01.630Z,4.66
2023-02-18T00:36:31.220Z,4.75
2023-02-18T00:39:04.029Z,4.75
2023-02-18T00:41:34.331Z,4.72
2023-02-18T00:44:05.621Z,4.63
2023-02-18T00:46:37.055Z,4.63
2023-02-18T00:49:07.452Z,4.59
2023-02-18T00:51:38.326Z,4.48
2023-02-18T00:54:07.580Z,4.46
2023-02-18T00:56:37.150Z,4.42
2023-02-18T00:59:07.921Z,4.37
2023-02-18T01:01:37.123Z,4.31
2023-02-18T01:04:06.689Z,4.29
2023-02-18T01:06:36.030Z,4.31
2023-02-18T01:09:05.823Z,4.35
2023-02-18T01:11:35.143Z,4.42
2023-02-18T01:14:04.555Z,4.20
2023-02-18T01:16:35.073Z,4.18
2023-02-18T01:19:04.381Z,4.31
2023-02-18T01:21:33.524Z,4.61
2023-02-18T01:24:02.934Z,4.50
2023-02-18T01:26:32.127Z,4.56
2023-02-18T01:29:01.197Z,4.79
2023-02-18T01:31:30.474Z,4.86
2023-02-18T01:34:02.684Z,4.70
2023-02-18T01:36:31.792Z,4.39
2023-02-18T01:39:00.850Z,4.32
2023-02-18T01:41:30.182Z,4.20
2023-02-18T01:44:17.227Z,4.18
2023-02-18T01:46:49.250Z,4.06
2023-02-18T01:49:25.412Z,4.19
2023-02-18T01:52:01.276Z,4.15
2023-02-18T01:54:36.725Z,4.07
2023-02-18T01:57:08.765Z,3.99
2023-02-18T01:59:42.810Z,4.00
2023-02-18T02:02:16.574Z,4.53
2023-02-18T02:04:47.834Z,4.36
2023-02-18T02:07:19.301Z,4.25
2023-02-18T02:09:51.372Z,4.01
2023-02-18T02:12:41.611Z,3.88
2023-02-18T02:15:30.593Z,3.97
2023-02-18T02:18:23.479Z,4.02
2023-02-18T02:21:41.573Z,4.08
2023-02-18T02:24:37.691Z,3.83
2023-02-18T02:27:27.444Z,3.87
2023-02-18T02:30:49.960Z,3.87
2023-02-18T02:34:06.642Z,3.93
2023-02-18T02:36:47.044Z,3.93
2023-02-18T02:39:24.516Z,3.92
2023-02-18T02:42:07.970Z,3.95
2023-02-18T02:44:45.912Z,4.16
2023-02-18T02:47:39.427Z,4.10
2023-02-18T02:50:15.020Z,4.12
2023-02-18T02:52:51.597Z,3.97
2023-02-18T02:55:22.791Z,3.86
2023-02-18T02:57:57.119Z,3.68
2023-02-18T03:00:48.718Z,3.55
2023-02-18T03:03:40.211Z,3.61
2023-02-18T03:06:37.028Z,3.62
2023-02-18T03:09:15.249Z,3.65
2023-02-18T03:11:52.845Z,3.62
2023-02-18T03:14:31.256Z,3.55
2023-02-18T03:17:05.008Z,3.50
2023-02-18T03:19:39.049Z,3.75
2023-02-18T03:22:14.698Z,3.86
2023-02-18T03:24:48.171Z,3.89
2023-02-18T03:27:22.836Z,4.05
2023-02-18T03:29:59.128Z,4.07
2023-02-18T03:32:30.592Z,4.56
2023-02-18T03:35:09.012Z,4.36
2023-02-18T03:37:43.367Z,4.26
2023-02-18T03:40:15.127Z,4.04
2023-02-18T03:42:44.209Z,3.99
2023-02-18T03:45:13.824Z,4.15
2023-02-18T03:47:43.998Z,4.01
2023-02-18T03:50:13.102Z,4.13
2023-02-18T03:52:42.164Z,3.94
2023-02-18T03:55:13.143Z,4.10
2023-02-18T03:57:42.295Z,3.99
2023-02-18T04:00:12.699Z,3.94
2023-02-18T04:02:44.737Z,3.98
2023-02-18T04:05:14.308Z,4.01
2023-02-18T04:07:43.440Z,3.92
2023-02-18T04:10:14.193Z,3.95
2023-02-18T04:12:43.309Z,4.09
2023-02-18T04:15:13.890Z,4.22
2023-02-18T04:17:43.041Z,4.01
2023-02-18T04:20:13.391Z,4.15
2023-02-18T04:22:42.517Z,3.94
2023-02-18T04:25:13.068Z,3.80
2023-02-18T04:27:42.209Z,3.83
2023-02-18T04:30:12.481Z,3.87
2023-02-18T04:32:41.927Z,3.65
2023-02-18T04:35:11.002Z,3.61
2023-02-18T04:37:40.058Z,3.57
2023-02-18T04:40:10.830Z,3.73
2023-02-18T04:42:41.364Z,3.63
2023-02-18T04:45:11.012Z,3.50
2023-02-18T04:47:40.203Z,3.50
2023-02-18T04:50:10.980Z,3.51
2023-02-18T04:52:40.069Z,3.70
2023-02-18T04:55:09.697Z,3.82
2023-02-18T04:57:40.206Z,3.94
2023-02-18T05:00:14.513Z,3.94
2023-02-18T05:02:43.794Z,3.93
2023-02-18T05:05:13.739Z,4.23
2023-02-18T05:07:43.491Z,4.28
2023-02-18T05:10:16.333Z,4.27
2023-02-18T05:12:46.840Z,4.09
2023-02-18T05:15:15.903Z,4.07
2023-02-18T05:17:45.029Z,4.12
2023-02-18T05:20:14.927Z,4.12
2023-02-18T05:22:44.257Z,4.27
2023-02-18T05:25:13.411Z,4.27
2023-02-18T05:27:42.629Z,4.49
2023-02-18T05:30:14.064Z,4.40
2023-02-18T05:32:43.323Z,4.33
2023-02-18T05:35:13.641Z,4.38
2023-02-18T05:37:42.942Z,4.36
2023-02-18T05:40:13.306Z,4.26
2023-02-18T05:42:42.385Z,4.23
2023-02-18T05:45:12.986Z,4.20
2023-02-18T05:47:42.085Z,4.18
2023-02-18T05:50:11.860Z,4.24
2023-02-18T05:52:40.989Z,4.25
2023-02-18T05:55:10.159Z,4.41
2023-02-18T05:57:39.301Z,4.60
2023-02-18T06:00:10.473Z,4.58
2023-02-18T06:02:41.165Z,4.66
2023-02-18T06:05:11.356Z,4.53
2023-02-18T06:07:40.916Z,4.44
2023-02-18T06:10:12.402Z,4.35
2023-02-18T06:12:42.256Z,4.38
2023-02-18T06:15:12.474Z,4.53
2023-02-18T06:17:43.565Z,4.56
2023-02-18T06:20:14.429Z,4.91
2023-02-18T06:22:44.351Z,4.77
2023-02-18T06:25:14.254Z,4.58
2023-02-18T06:27:46.821Z,4.46
2023-02-18T06:30:17.406Z,4.37
2023-02-18T06:32:48.856Z,4.29
2023-02-18T06:35:18.958Z,4.20
2023-02-18T06:37:49.145Z,4.17
2023-02-18T06:40:19.891Z,4.14
2023-02-18T06:42:54.065Z,4.10
2023-02-18T06:45:24.056Z,4.04
2023-02-18T06:47:55.477Z,4.07
2023-02-18T06:50:25.187Z,4.15
2023-02-18T06:52:55.278Z,4.21
2023-02-18T06:55:25.116Z,4.28
2023-02-18T06:57:55.059Z,4.43
2023-02-18T07:00:24.963Z,4.49
2023-02-18T07:02:56.554Z,4.56
2023-02-18T07:05:26.406Z,4.57
2023-02-18T07:07:56.382Z,4.64
2023-02-18T07:10:26.933Z,4.65
2023-02-18T07:12:56.647Z,4.65
2023-02-18T07:15:28.189Z,4.66
2023-02-18T07:18:00.551Z,4.72
2023-02-18T07:20:30.549Z,4.80
2023-02-18T07:23:00.545Z,4.88
2023-02-18T07:25:30.473Z,4.95
2023-02-18T07:28:00.536Z,4.98
2023-02-18T07:30:32.752Z,4.98
2023-02-18T07:33:04.598Z,5.01
2023-02-18T07:35:34.672Z,5.08
2023-02-18T07:38:04.850Z,5.01
2023-02-18T07:40:36.019Z,5.09
2023-02-18T07:43:05.803Z,5.15
2023-02-18T07:45:38.408Z,5.30
2023-02-18T07:48:10.051Z,5.44
2023-02-18T07:50:42.012Z,5.60
2023-02-18T07:53:14.362Z,5.74
2023-02-18T07:55:51.010Z,5.87
2023-02-18T07:58:22.888Z,6.00
2023-02-18T08:01:06.289Z,6.18
2023-02-18T08:03:37.814Z,6.24
2023-02-18T08:46:08.935Z,8.26
2023-02-18T08:48:45.064Z,8.49
2023-02-18T08:51:17.315Z,8.64
2023-02-18T08:53:47.286Z,8.74
2023-02-18T08:56:17.256Z,8.75
2023-02-18T08:58:46.491Z,8.66
2023-02-18T09:01:16.914Z,8.67
2023-02-18T09:03:46.101Z,8.75
2023-02-18T09:06:15.122Z,8.74
2023-02-18T09:08:44.170Z,8.82
2023-02-18T09:11:13.551Z,8.76
2023-02-18T09:13:42.893Z,8.77
2023-02-18T09:16:15.209Z,8.80
2023-02-18T09:18:46.385Z,8.91
2023-02-18T09:21:20.748Z,9.03
2023-02-18T09:23:52.028Z,9.19
2023-02-18T09:26:25.027Z,9.40
2023-02-18T09:28:57.159Z,9.64
2023-02-18T09:31:28.208Z,9.82
2023-02-18T09:34:01.928Z,9.98
2023-02-18T09:36:31.705Z,10.34
2023-02-18T09:39:01.683Z,10.50
2023-02-18T09:41:39.645Z,10.66
2023-02-18T09:44:17.262Z,10.70
2023-02-18T09:46:53.303Z,10.88
2023-02-18T09:49:28.142Z,10.94
2023-02-18T09:52:02.208Z,11.07
2023-02-18T09:54:31.245Z,11.25
2023-02-18T09:57:01.002Z,11.37
2023-02-18T09:59:32.143Z,11.61
2023-02-18T10:02:03.228Z,11.85
2023-02-18T10:04:42.851Z,12.12
2023-02-18T10:07:23.094Z,12.34
2023-02-18T10:09:55.309Z,12.51
2023-02-18T10:12:27.407Z,12.58
2023-02-18T10:14:59.985Z,12.51
2023-02-18T10:17:34.195Z,12.48
2023-02-18T10:20:07.984Z,12.52
2023-02-18T10:22:39.995Z,12.62
2023-02-18T10:25:10.460Z,12.80
2023-02-18T10:27:42.135Z,12.95
2023-02-18T10:30:25.552Z,13.11
2023-02-18T10:33:02.831Z,13.34
2023-02-18T10:35:42.078Z,13.58
2023-02-18T10:38:19.830Z,13.86
2023-02-18T10:41:02.047Z,14.09
2023-02-18T10:43:43.880Z,14.25
2023-02-18T10:46:23.993Z,14.51
2023-02-18T10:49:11.840Z,14.83
2023-02-18T10:51:49.093Z,15.05
2023-02-18T10:54:18.897Z,15.24
2023-02-18T10:56:52.338Z,15.36
2023-02-18T10:59:23.585Z,15.47
2023-02-18T11:01:58.250Z,15.59
2023-02-18T11:04:37.967Z,15.66
2023-02-18T11:07:16.754Z,15.84
2023-02-18T11:09:51.329Z,15.91
2023-02-18T11:12:24.835Z,15.99
2023-02-18T11:15:17.538Z,15.94
2023-02-18T11:17:48.966Z,15.82
2023-02-18T11:20:33.948Z,15.72
2023-02-18T11:23:20.754Z,15.77
2023-02-18T11:26:05.351Z,15.93
2023-02-18T11:28:45.544Z,16.02
2023-02-18T11:31:24.126Z,16.15
2023-02-18T11:33:56.828Z,16.22
2023-02-18T11:36:30.564Z,16.31
2023-02-18T11:39:06.362Z,16.48
2023-02-18T11:41:39.863Z,16.48
2023-02-18T11:44:23.672Z,16.61
2023-02-18T11:47:03.758Z,16.74
2023-02-18T11:49:35.239Z,16.86
2023-02-18T11:52:19.397Z,16.99
2023-02-18T11:55:04.786Z,17.06
2023-02-18T11:57:38.942Z,17.31
2023-02-18T12:00:23.163Z,17.60
2023-02-18T12:02:57.699Z,18.28
2023-02-18T12:05:35.135Z,18.54
2023-02-18T12:08:11.681Z,18.82
2023-02-18T12:10:47.923Z,19.11
2023-02-18T12:13:26.953Z,19.27
2023-02-18T12:16:10.439Z,19.67
2023-02-18T12:19:15.811Z,19.85
2023-02-18T12:21:59.851Z,20.08
2023-02-18T12:24:56.098Z,20.40
2023-02-18T12:27:35.968Z,20.05
2023-02-18T12:30:39.053Z,19.93
2023-02-18T12:33:21.003Z,19.80
2023-02-18T12:36:04.184Z,19.83
2023-02-18T12:38:55.778Z,19.96
2023-02-18T12:41:58.515Z,20.56
2023-02-18T12:44:45.195Z,21.18
2023-02-18T12:47:51.502Z,21.28
2023-02-18T12:50:53.025Z,21.40
2023-02-18T12:53:50.234Z,21.58
2023-02-18T12:56:53.537Z,21.46
2023-02-18T12:59:53.603Z,21.52
2023-02-18T13:02:48.602Z,21.27
2023-02-18T13:05:32.250Z,21.39
2023-02-18T13:08:22.541Z,21.91
2023-02-18T13:11:14.394Z,22.86
2023-02-18T13:13:51.621Z,22.84
2023-02-18T13:16:22.950Z,22.38
2023-02-18T13:19:03.722Z,22.19
2023-02-18T13:21:33.131Z,22.15
2023-02-18T13:24:06.037Z,21.58
2023-02-18T13:26:36.425Z,21.16
2023-02-18T13:29:24.008Z,21.89
2023-02-18T13:32:10.984Z,21.99
2023-02-18T13:34:48.007Z,21.24
2023-02-18T13:37:26.927Z,20.92
2023-02-18T13:39:58.555Z,20.88
2023-02-18T13:42:37.047Z,20.77
2023-02-18T13:45:29.109Z,21.32
2023-02-18T13:48:01.239Z,22.33
2023-02-18T13:50:40.316Z,22.93
2023-02-18T13:53:25.616Z,22.32
2023-02-18T13:55:59.414Z,23.00
2023-02-18T13:58:37.248Z,23.65
2023-02-18T14:01:13.066Z,23.63
2023-02-18T14:03:57.877Z,22.43
2023-02-18T14:06:31.518Z,22.07
2023-02-18T14:09:36.361Z,22.02
2023-02-18T14:12:28.434Z,22.15
2023-02-18T14:15:00.721Z,22.05
2023-02-18T14:17:50.234Z,23.30
2023-02-18T14:20:51.505Z,23.49
2023-02-18T14:23:59.322Z,24.28
2023-02-18T14:26:34.913Z,25.86
2023-02-18T14:29:12.116Z,26.78
2023-02-18T14:31:59.006Z,27.58
2023-02-18T14:35:10.743Z,28.10
2023-02-18T14:38:25.462Z,27.78
2023-02-18T14:41:27.301Z,29.09
2023-02-18T14:44:20.872Z,28.65
2023-02-18T14:47:12.435Z,29.34
2023-02-18T14:49:47.162Z,28.39
2023-02-18T14:52:32.157Z,27.81
2023-02-18T14:55:06.259Z,27.61
2023-02-18T14:57:41.307Z,26.92
2023-02-18T15:00:18.783Z,26.20
2023-02-18T15:02:51.572Z,26.28
2023-02-18T15:05:24.097Z,25.90
2023-02-18T15:08:01.063Z,25.39
2023-02-18T15:10:40.736Z,24.44
2023-02-18T15:13:18.164Z,24.05
2023-02-18T15:15:52.028Z,23.44
2023-02-18T15:18:31.328Z,22.13
2023-02-18T15:21:03.364Z,20.10
2023-02-18T15:23:38.278Z,18.62
2023-02-18T15:26:14.178Z,17.69
2023-02-18T15:28:54.695Z,17.08
2023-02-18T15:31:28.223Z,16.55
2023-02-18T15:33:59.205Z,15.91
2023-02-18T15:36:28.440Z,15.16
2023-02-18T15:38:58.431Z,14.71
2023-02-18T15:41:38.220Z,14.30
2023-02-18T15:44:09.332Z,14.03
2023-02-18T15:46:38.443Z,13.79
2023-02-18T15:49:09.466Z,13.66
2023-02-18T15:51:38.596Z,13.45
2023-02-18T15:54:07.673Z,13.18
2023-02-18T15:56:45.402Z,12.86
2023-02-18T15:59:21.572Z,12.52
2023-02-18T16:01:52.679Z,12.23
2023-02-18T16:04:22.732Z,11.99
2023-02-18T16:06:54.014Z,11.76
2023-02-18T16:09:27.318Z,11.50
2023-02-18T16:12:03.425Z,11.20
2023-02-18T16:14:35.342Z,10.90
2023-02-18T16:17:17.047Z,10.55
2023-02-18T16:20:04.067Z,10.29
2023-02-18T16:22:36.803Z,9.88
2023-02-18T16:25:18.723Z,9.62
2023-02-18T16:27:55.061Z,9.47
2023-02-18T16:30:26.233Z,9.28
2023-02-18T16:32:55.366Z,9.48
2023-02-18T16:35:25.606Z,9.71
2023-02-18T16:37:57.771Z,9.93
2023-02-18T16:40:31.258Z,9.90
2023-02-18T16:43:13.180Z,10.11
2023-02-18T16:45:44.485Z,9.77
2023-02-18T16:48:20.693Z,9.50
2023-02-18T16:50:52.749Z,9.26
2023-02-18T16:53:22.148Z,9.04
2023-02-18T16:55:52.178Z,8.85
2023-02-18T16:58:24.554Z,8.69
2023-02-18T17:00:53.765Z,9.00
2023-02-18T17:03:23.117Z,9.08
2023-02-18T17:05:54.697Z,8.89
2023-02-18T17:08:28.923Z,8.74
2023-02-18T17:10:59.631Z,8.44
2023-02-18T17:13:31.656Z,8.25
2023-02-18T17:16:03.662Z,8.55
2023-02-18T17:18:33.317Z,8.40
2023-02-18T17:21:03.599Z,8.48
2023-02-18T17:23:32.539Z,8.19
2023-02-18T17:26:01.490Z,7.94
2023-02-18T17:28:31.994Z,7.74
2023-02-18T17:31:01.034Z,7.48
2023-02-18T17:33:30.026Z,7.39
2023-02-18T17:36:01.348Z,7.44
2023-02-18T17:38:30.339Z,7.23
2023-02-18T17:40:59.260Z,7.22
2023-02-18T17:43:28.277Z,7.15
2023-02-18T17:46:00.405Z,7.31
2023-02-18T17:48:29.828Z,6.91
2023-02-18T17:50:59.412Z,6.52
2023-02-18T17:53:29.631Z,6.48
2023-02-18T17:55:58.540Z,6.45
2023-02-18T17:58:27.719Z,6.71
2023-02-18T18:00:59.385Z,6.42
2023-02-18T18:03:28.516Z,6.04
2023-02-18T18:05:57.715Z,5.92
2023-02-18T18:08:26.691Z,5.81
2023-02-18T18:10:58.782Z,5.67
2023-02-18T18:13:34.669Z,5.56
2023-02-18T18:16:05.969Z,5.86
2023-02-18T18:18:36.941Z,5.62
2023-02-18T18:21:06.968Z,5.32
2023-02-18T18:23:36.099Z,5.08
2023-02-18T18:26:05.451Z,5.07
2023-02-18T18:28:36.128Z,4.94
2023-02-18T18:31:08.097Z,4.80
2023-02-18T18:33:37.350Z,4.51
2023-02-18T18:36:10.314Z,4.47
2023-02-18T18:38:40.398Z,4.57
2023-02-18T18:41:15.330Z,4.33
2023-02-18T18:43:44.321Z,4.42
2023-02-18T18:46:14.959Z,4.42
2023-02-18T18:48:43.986Z,4.13
2023-02-18T18:51:17.161Z,4.23
2023-02-18T18:53:46.259Z,4.17
2023-02-18T18:56:15.413Z,4.49
2023-02-18T18:58:44.532Z,4.12
2023-02-18T19:01:18.886Z,3.72
2023-02-18T19:03:48.538Z,3.66
2023-02-18T19:06:18.360Z,3.56
2023-02-18T19:08:47.944Z,3.75
2023-02-18T19:11:18.337Z,3.60
2023-02-18T19:13:47.437Z,3.56
2023-02-18T19:16:22.333Z,3.68
2023-02-18T19:18:51.720Z,3.75
2023-02-18T19:21:21.043Z,3.59
2023-02-18T19:23:50.443Z,3.78
2023-02-18T19:26:20.587Z,3.62
2023-02-18T19:28:49.668Z,3.57
2023-02-18T19:31:24.011Z,3.47
2023-02-18T19:33:54.352Z,3.60
2023-02-18T19:36:23.467Z,3.45
2023-02-18T19:38:52.778Z,3.31
2023-02-18T19:41:21.771Z,3.08
2023-02-18T19:43:50.769Z,3.16
2023-02-18T19:46:21.249Z,3.37
2023-02-18T19:48:52.620Z,3.44
2023-02-18T19:51:23.170Z,3.73
2023-02-18T19:53:52.825Z,3.61
2023-02-18T19:56:21.788Z,3.42
2023-02-18T19:58:50.772Z,3.31
2023-02-18T20:01:28.709Z,3.25
2023-02-18T20:03:57.674Z,3.28
2023-02-18T20:06:26.631Z,3.36
2023-02-18T20:08:55.584Z,3.32
2023-02-18T20:11:24.706Z,3.31
2023-02-18T20:13:53.796Z,3.42
2023-02-18T20:16:24.153Z,3.41
2023-02-18T20:18:54.034Z,3.41
2023-02-18T20:21:26.300Z,3.41
2023-02-18T20:23:56.069Z,3.58
2023-02-18T20:26:25.612Z,3.63
2023-02-18T20:28:54.509Z,3.54
2023-02-18T20:31:24.964Z,3.35
2023-02-18T20:33:57.259Z,3.25
2023-02-18T20:36:27.855Z,3.23
2023-02-18T20:39:02.452Z,3.27
2023-02-18T20:41:37.114Z,3.48
2023-02-18T20:44:06.694Z,3.90
2023-02-18T20:46:38.135Z,3.77
2023-02-18T20:49:09.058Z,3.96
2023-02-18T20:51:38.590Z,4.18
2023-02-18T20:54:10.230Z,3.80
2023-02-18T20:56:40.746Z,3.92
2023-02-18T20:59:12.686Z,3.92
2023-02-18T21:01:43.868Z,3.91
2023-02-18T21:04:13.818Z,3.97
2023-02-18T21:06:45.404Z,4.14
2023-02-18T21:09:15.661Z,4.32
2023-02-18T21:11:45.597Z,4.33
2023-02-18T21:14:14.610Z,4.42
2023-02-18T21:30:20.968Z,4.28
2023-02-18T21:32:50.030Z,4.22
2023-02-18T21:35:19.185Z,4.20
2023-02-18T21:37:48.204Z,4.15
2023-02-18T21:40:17.497Z,4.13
2023-02-18T21:42:47.440Z,4.03
2023-02-18T21:45:20.333Z,3.91
2023-02-18T21:47:50.924Z,3.78
2023-02-18T21:50:20.140Z,4.24
2023-02-18T21:52:49.063Z,4.12
2023-02-18T21:55:18.294Z,4.09
2023-02-18T21:57:47.220Z,4.70
2023-02-18T22:00:21.047Z,4.50
2023-02-18T22:02:51.777Z,4.31
2023-02-18T22:05:21.459Z,4.20
2023-02-18T22:07:50.520Z,4.59
2023-02-18T22:10:20.084Z,4.36
2023-02-18T22:12:49.359Z,4.09
2023-02-18T22:15:18.663Z,4.26
2023-02-18T22:17:47.953Z,4.21
2023-02-18T22:20:19.575Z,4.21
2023-02-18T22:22:48.546Z,4.09
2023-02-18T22:25:17.579Z,4.21
2023-02-18T22:27:46.682Z,4.24
2023-02-18T22:30:18.835Z,4.23
2023-02-18T22:32:47.906Z,4.23
2023-02-18T22:35:18.600Z,4.22
2023-02-18T22:37:47.574Z,4.23
2023-02-18T22:40:16.712Z,4.36
2023-02-18T22:42:45.755Z,4.39
2023-02-18T22:45:14.686Z,4.16
2023-02-18T22:47:43.834Z,4.18
2023-02-18T22:50:12.806Z,4.31
2023-02-18T22:52:43.638Z,4.08
2023-02-18T22:55:12.680Z,4.48
2023-02-18T22:57:42.130Z,4.50
2023-02-18T23:00:13.458Z,4.19
2023-02-18T23:02:42.611Z,4.08
2023-02-18T23:05:11.569Z,4.21
2023-02-18T23:07:41.977Z,4.05
2023-02-18T23:10:11.013Z,4.20
2023-02-18T23:12:40.010Z,4.04
2023-02-18T23:15:11.034Z,4.20
2023-02-18T23:17:41.465Z,4.20
2023-02-18T23:20:11.407Z,4.30
2023-02-18T23:22:41.975Z,4.16
2023-02-18T23:25:12.581Z,4.12
2023-02-18T23:27:41.558Z,4.29
2023-02-18T23:30:12.819Z,4.23
2023-02-18T23:32:41.796Z,4.31
2023-02-18T23:35:10.732Z,4.06
2023-02-18T23:37:57.228Z,4.06
2023-02-18T23:40:27.613Z,4.18
2023-02-18T23:42:57.246Z,4.08
2023-02-18T23:45:26.428Z,3.95
2023-02-18T23:47:55.367Z,4.10
2023-02-18T23:50:24.645Z,4.38
2023-02-18T23:52:54.200Z,4.34
2023-02-18T23:55:23.244Z,4.36
2023-02-18T23:57:53.529Z,4.19
